LEVX/VGO METAR and TAF weather

Enter ICAO airport designator
Station Type Date Time Source
LEVX METAR 2020/01/23 18:30 UTC NOAA

LEVX 231830Z 36004KT 9999 FEW040 09/04 Q1016 NOSIG


Station Type Date Time Source
LEVX Decoded METAR 2020/01/23 18:30 UTC NOAA

Vigo / Peinador, Spain (LEVX) 42-13N 008-38W 255M
Jan 23, 2020 - 01:30 PM EST / 2020.01.23 1830 UTC
Wind: from the N (360 degrees) at 5 MPH (4 KT):0
Visibility: greater than 7 mile(s):0
Sky conditions: mostly clear
Temperature: 48 F (9 C)
Dew Point: 39 F (4 C)
Relative Humidity: 70%
Pressure (altimeter): 30.00 in. Hg (1016 hPa)
ob: LEVX 231830Z 36004KT 9999 FEW040 09/04 Q1016 NOSIG
cycle: 18

Station Type Date Time Source
LEVX TAF 2020/01/23 18:27 UTC NOAA

TAF LEVX 231700Z 2318/2418 09005KT 9999 FEW040 TX12/2415Z TN04/2408Z PROB30
TEMPO 2321/2324 3000 -RA PROB30
TEMPO 2400/2408 3000 BCFG

Example: see airport list